Time;durP1;ratioP1;P1;durP2;ratioP2;P2;SDS_P1;SDS_P2;PMS_P1;PMS_P2;Temp;Humidity;BMP_temperature;BMP_pressure;BME280_temperature;BME280_humidity;BME280_pressure;Samples;Min_cycle;Max_cycle;Signal;HPM_P1;HPM_P2
2024/01/15 00:00:06;;;;;;;13.15;5.18;;;1.70;99.90;;;;;;5151675;27;20018;-77
2024/01/15 00:02:32;;;;;;;18.25;5.93;;;1.70;99.90;;;;;;5151203;27;20018;-77
2024/01/15 00:04:57;;;;;;;13.00;4.75;;;1.70;99.90;;;;;;5150842;27;20083;-77
2024/01/15 00:07:23;;;;;;;12.75;4.93;;;1.60;99.90;;;;;;5151948;27;20057;-77
2024/01/15 00:09:49;;;;;;;17.23;6.45;;;1.60;99.90;;;;;;5145208;27;20405;-76
2024/01/15 00:12:14;;;;;;;16.33;4.68;;;1.50;99.90;;;;;;5120211;27;20043;-78
2024/01/15 00:14:40;;;;;;;12.20;4.72;;;1.50;99.90;;;;;;5119661;28;20015;-78
2024/01/15 00:17:06;;;;;;;10.55;4.07;;;1.50;99.90;;;;;;5110531;28;20073;-78
2024/01/15 00:19:32;;;;;;;13.18;4.20;;;1.60;99.90;;;;;;5092734;28;20110;-78
2024/01/15 00:21:59;;;;;;;15.65;4.43;;;1.60;99.90;;;;;;5109986;28;20091;-77
2024/01/15 00:24:24;;;;;;;7.25;4.00;;;1.60;99.90;;;;;;5110855;28;20035;-78
2024/01/15 00:26:50;;;;;;;11.48;5.10;;;1.60;99.90;;;;;;5109987;28;20362;-77
2024/01/15 00:29:16;;;;;;;12.82;4.00;;;1.50;99.90;;;;;;5110812;28;20123;-78
2024/01/15 00:31:42;;;;;;;16.52;5.22;;;1.50;99.90;;;;;;5109964;28;20027;-78
2024/01/15 00:34:08;;;;;;;12.40;5.05;;;1.40;99.90;;;;;;5110660;28;20036;-77
2024/01/15 00:36:33;;;;;;;10.68;4.07;;;1.50;99.90;;;;;;5110391;28;20026;-78
2024/01/15 00:38:59;;;;;;;11.25;3.90;;;1.40;99.90;;;;;;5110187;28;20090;-77
2024/01/15 00:41:27;;;;;;;16.30;4.25;;;1.40;99.90;;;;;;5111252;28;20076;-78
2024/01/15 00:43:53;;;;;;;16.52;4.47;;;1.30;99.90;;;;;;5110301;28;20050;-78
2024/01/15 00:46:18;;;;;;;9.27;3.80;;;1.30;99.90;;;;;;5110584;28;20051;-78
2024/01/15 00:48:45;;;;;;;14.02;4.45;;;1.40;99.90;;;;;;5109977;28;20031;-78
2024/01/15 00:51:10;;;;;;;8.63;4.18;;;1.30;99.90;;;;;;5110423;28;20030;-78
2024/01/15 00:53:36;;;;;;;10.80;4.13;;;1.40;99.90;;;;;;5092240;28;20031;-78
2024/01/15 00:56:03;;;;;;;13.77;4.35;;;1.30;99.90;;;;;;5109648;28;20024;-78
2024/01/15 00:58:28;;;;;;;10.20;4.30;;;1.30;99.90;;;;;;5110025;28;20035;-78
2024/01/15 01:00:55;;;;;;;9.77;4.32;;;1.30;99.90;;;;;;5109646;28;20099;-77
2024/01/15 01:03:21;;;;;;;11.23;3.83;;;1.40;99.90;;;;;;5110453;28;20190;-78
2024/01/15 01:05:49;;;;;;;9.07;3.30;;;1.30;99.90;;;;;;5110158;28;20051;-78
2024/01/15 01:08:15;;;;;;;11.52;3.80;;;1.30;99.90;;;;;;5110530;28;20023;-78
2024/01/15 01:10:42;;;;;;;9.40;3.92;;;1.30;99.90;;;;;;5110512;28;20015;-78
2024/01/15 01:13:08;;;;;;;11.07;4.93;;;1.30;99.90;;;;;;5110705;28;20015;-78
2024/01/15 01:15:34;;;;;;;10.57;3.92;;;1.30;99.90;;;;;;5114263;28;20028;-78
2024/01/15 01:18:00;;;;;;;8.75;3.75;;;1.30;99.90;;;;;;5113738;28;20026;-78
2024/01/15 01:20:26;;;;;;;10.88;3.53;;;1.30;99.90;;;;;;5114494;28;20152;-78
2024/01/15 01:22:51;;;;;;;9.52;3.85;;;1.30;99.90;;;;;;5113591;28;20102;-77
2024/01/15 01:25:17;;;;;;;10.63;3.90;;;1.20;99.90;;;;;;5114742;28;20131;-78
2024/01/15 01:27:43;;;;;;;12.38;4.90;;;1.20;99.90;;;;;;5096206;28;20024;-78
2024/01/15 01:30:09;;;;;;;12.75;4.13;;;1.20;99.90;;;;;;5114312;28;20095;-78
2024/01/15 01:32:35;;;;;;;10.13;4.15;;;1.20;99.90;;;;;;5114453;28;20024;-77
2024/01/15 01:35:01;;;;;;;8.70;4.00;;;1.20;99.90;;;;;;5113167;28;20421;-78
2024/01/15 01:37:26;;;;;;;11.48;4.63;;;1.10;99.90;;;;;;5095301;28;20033;-78
2024/01/15 01:39:52;;;;;;;8.82;3.67;;;1.10;99.90;;;;;;5113408;28;20051;-78
2024/01/15 01:42:18;;;;;;;10.18;4.00;;;1.10;99.90;;;;;;5113472;28;20330;-78
2024/01/15 01:44:43;;;;;;;7.85;3.70;;;1.10;99.90;;;;;;5113658;28;20053;-78
2024/01/15 01:47:09;;;;;;;14.07;4.85;;;1.00;99.90;;;;;;5112652;28;20020;-77
2024/01/15 01:49:36;;;;;;;8.13;3.70;;;1.10;99.90;;;;;;5113147;28;20106;-78
2024/01/15 01:52:04;;;;;;;14.98;4.10;;;1.00;99.90;;;;;;5112735;28;20020;-78
2024/01/15 01:54:32;;;;;;;11.93;3.63;;;1.00;99.90;;;;;;5113003;28;20028;-78
2024/01/15 01:56:58;;;;;;;6.10;3.92;;;1.00;99.90;;;;;;5112347;28;20050;-77
2024/01/15 01:59:27;;;;;;;14.25;3.85;;;1.00;99.90;;;;;;5113349;28;20153;-78
2024/01/15 02:01:54;;;;;;;9.57;3.45;;;1.00;99.90;;;;;;5112454;28;20020;-78
2024/01/15 02:04:22;;;;;;;14.13;3.80;;;0.90;99.90;;;;;;5131185;27;20523;-77
2024/01/15 02:06:48;;;;;;;13.95;3.88;;;0.90;99.90;;;;;;5133491;27;20042;-77
2024/01/15 02:09:15;;;;;;;11.52;3.65;;;1.00;99.90;;;;;;5133622;27;20030;-78
2024/01/15 02:11:42;;;;;;;11.82;3.55;;;1.00;99.90;;;;;;5114993;27;20023;-78
2024/01/15 02:14:09;;;;;;;13.23;3.40;;;1.00;99.90;;;;;;5132766;27;20075;-78
2024/01/15 02:16:35;;;;;;;10.88;3.17;;;1.00;99.90;;;;;;5133285;27;20471;-78
2024/01/15 02:19:00;;;;;;;12.65;3.20;;;1.00;99.90;;;;;;5132632;27;20023;-77
2024/01/15 02:21:28;;;;;;;11.88;2.70;;;1.00;99.90;;;;;;5133507;27;20069;-78
2024/01/15 02:23:54;;;;;;;9.65;3.22;;;1.10;99.90;;;;;;5132850;27;20164;-77
2024/01/15 02:26:21;;;;;;;8.82;2.35;;;1.00;99.90;;;;;;5133000;27;20038;-78
2024/01/15 02:28:47;;;;;;;12.88;3.00;;;1.10;99.90;;;;;;5133023;27;20409;-77
2024/01/15 02:31:13;;;;;;;11.52;2.70;;;1.00;99.90;;;;;;5114495;27;20027;-78
2024/01/15 02:33:39;;;;;;;7.55;2.72;;;1.00;99.90;;;;;;5133054;27;20019;-78
2024/01/15 02:36:05;;;;;;;8.05;2.28;;;1.10;99.90;;;;;;5114241;27;20376;-78
2024/01/15 02:38:31;;;;;;;9.63;2.72;;;1.10;99.90;;;;;;5132880;27;20079;-78
2024/01/15 02:40:57;;;;;;;6.93;2.58;;;1.00;99.90;;;;;;5132498;27;20452;-78
2024/01/15 02:43:23;;;;;;;9.38;2.42;;;1.10;99.90;;;;;;5132824;27;20333;-78
2024/01/15 02:45:48;;;;;;;8.73;2.58;;;1.00;99.90;;;;;;5114316;27;20220;-78
2024/01/15 02:48:14;;;;;;;12.80;2.97;;;1.00;99.90;;;;;;5132706;27;20405;-78
2024/01/15 02:50:40;;;;;;;10.93;3.72;;;1.00;99.90;;;;;;5132758;27;20019;-78
2024/01/15 02:53:06;;;;;;;12.57;2.70;;;1.00;99.90;;;;;;5113664;27;20027;-78
2024/01/15 02:55:31;;;;;;;7.32;2.92;;;1.00;99.90;;;;;;5132281;27;20121;-78
2024/01/15 02:57:57;;;;;;;11.32;2.58;;;1.00;99.90;;;;;;5131632;27;20035;-78
2024/01/15 03:00:23;;;;;;;11.10;3.22;;;0.90;99.90;;;;;;5113823;27;20026;-78
2024/01/15 03:02:50;;;;;;;10.68;2.35;;;0.90;99.90;;;;;;5132948;27;20019;-78
2024/01/15 03:05:16;;;;;;;9.55;2.50;;;0.90;99.90;;;;;;5135673;27;20029;-78
2024/01/15 03:07:43;;;;;;;5.75;1.83;;;1.00;99.90;;;;;;5135666;27;20051;-78
2024/01/15 03:10:09;;;;;;;5.80;2.00;;;0.90;99.90;;;;;;5116716;27;20072;-78
2024/01/15 03:12:35;;;;;;;8.82;1.88;;;1.00;99.90;;;;;;5135167;27;20326;-78
2024/01/15 03:15:01;;;;;;;4.70;2.15;;;1.00;99.90;;;;;;5133534;27;20114;-77
2024/01/15 03:17:26;;;;;;;8.40;2.65;;;0.90;99.90;;;;;;5134370;27;20050;-77
2024/01/15 03:19:52;;;;;;;5.53;1.48;;;0.90;99.90;;;;;;5134295;27;20019;-78
2024/01/15 03:22:18;;;;;;;9.07;2.70;;;1.00;99.90;;;;;;5134363;27;20038;-78
2024/01/15 03:24:44;;;;;;;9.05;2.08;;;1.00;99.90;;;;;;5133694;27;20027;-78
2024/01/15 03:27:10;;;;;;;9.73;2.45;;;0.90;99.90;;;;;;5133732;27;20026;-77
2024/01/15 03:29:36;;;;;;;6.90;2.05;;;1.00;99.90;;;;;;5133902;27;20019;-77
2024/01/15 03:32:02;;;;;;;9.80;2.20;;;1.00;99.90;;;;;;5133619;27;20023;-77
2024/01/15 03:34:27;;;;;;;12.23;2.50;;;1.00;99.90;;;;;;5133328;27;20037;-78
2024/01/15 03:36:53;;;;;;;5.40;2.08;;;1.00;99.90;;;;;;5132010;27;20491;-77
2024/01/15 03:39:19;;;;;;;8.35;2.20;;;1.00;99.90;;;;;;5133747;27;20019;-77
2024/01/15 03:41:45;;;;;;;6.30;1.90;;;1.00;99.90;;;;;;5134630;27;20019;-78
2024/01/15 03:44:10;;;;;;;8.98;2.67;;;1.00;99.90;;;;;;5133248;27;20030;-78
2024/01/15 03:46:36;;;;;;;5.72;1.90;;;1.00;99.90;;;;;;5133970;27;20121;-77
2024/01/15 03:49:02;;;;;;;2.90;1.83;;;1.00;99.90;;;;;;5133428;27;20076;-78
2024/01/15 03:51:28;;;;;;;5.00;1.83;;;1.10;99.90;;;;;;5133861;27;20574;-77
2024/01/15 03:53:53;;;;;;;8.35;2.08;;;1.10;99.90;;;;;;5133759;27;20063;-77
2024/01/15 03:56:19;;;;;;;9.73;1.75;;;1.10;99.90;;;;;;5133100;27;20141;-77
2024/01/15 03:58:45;;;;;;;7.47;2.15;;;1.00;99.90;;;;;;5133867;27;20325;-77
2024/01/15 04:01:11;;;;;;;8.25;2.22;;;1.00;99.90;;;;;;5132983;27;20031;-77
2024/01/15 04:03:37;;;;;;;6.90;1.75;;;1.00;99.90;;;;;;5133523;27;20015;-77
2024/01/15 04:06:04;;;;;;;3.65;1.50;;;1.10;99.90;;;;;;5132846;27;20060;-78
2024/01/15 04:08:30;;;;;;;6.88;2.00;;;1.00;99.90;;;;;;5133377;27;20046;-77
2024/01/15 04:10:56;;;;;;;8.45;2.38;;;1.00;99.90;;;;;;5133150;27;20443;-77
2024/01/15 04:13:21;;;;;;;5.30;2.05;;;1.00;99.90;;;;;;5133922;27;20042;-77
2024/01/15 04:15:47;;;;;;;8.20;1.77;;;1.00;99.90;;;;;;5133236;27;20192;-77
2024/01/15 04:18:13;;;;;;;7.50;1.65;;;1.00;99.90;;;;;;5133370;28;20367;-77
2024/01/15 04:20:39;;;;;;;8.63;1.42;;;1.00;99.90;;;;;;5133319;28;20443;-77
2024/01/15 04:23:05;;;;;;;4.75;1.67;;;1.00;99.90;;;;;;5132641;28;20019;-78
2024/01/15 04:25:31;;;;;;;8.13;2.00;;;1.00;99.90;;;;;;5133215;28;20024;-77
2024/01/15 04:27:57;;;;;;;4.70;1.67;;;0.90;99.90;;;;;;5132882;28;20499;-77
2024/01/15 04:30:22;;;;;;;6.80;1.70;;;0.90;99.90;;;;;;5133105;28;20023;-78
2024/01/15 04:32:48;;;;;;;7.35;1.85;;;1.00;99.90;;;;;;5114600;28;20048;-77
2024/01/15 04:35:14;;;;;;;12.30;2.00;;;1.00;99.90;;;;;;5132870;28;20035;-77
2024/01/15 04:37:40;;;;;;;6.85;1.63;;;0.90;99.90;;;;;;5133616;28;20019;-78
2024/01/15 04:40:07;;;;;;;8.40;1.88;;;0.90;99.90;;;;;;5133487;28;20058;-77
2024/01/15 04:42:32;;;;;;;7.88;1.63;;;0.90;99.90;;;;;;5133368;28;20015;-77
2024/01/15 04:44:59;;;;;;;6.68;1.73;;;0.90;99.90;;;;;;5114549;28;20416;-77
2024/01/15 04:47:24;;;;;;;4.50;1.40;;;0.90;99.90;;;;;;5134115;27;20022;-77
2024/01/15 04:49:51;;;;;;;5.68;2.22;;;0.90;99.90;;;;;;5136661;27;20019;-77
2024/01/15 04:52:16;;;;;;;7.43;2.00;;;0.80;99.90;;;;;;5137239;27;20076;-77
2024/01/15 04:54:42;;;;;;;10.93;2.28;;;0.80;99.90;;;;;;5136820;27;20376;-77
2024/01/15 04:57:08;;;;;;;7.50;1.90;;;0.70;99.90;;;;;;5135940;27;20034;-78
2024/01/15 04:59:33;;;;;;;8.07;1.98;;;0.70;99.90;;;;;;5136683;27;20341;-77
2024/01/15 05:01:59;;;;;;;4.72;1.58;;;0.70;99.90;;;;;;5136060;27;20027;-77
2024/01/15 05:04:25;;;;;;;10.02;1.73;;;0.70;99.90;;;;;;5136570;27;20019;-77
2024/01/15 05:06:51;;;;;;;5.63;1.60;;;0.70;99.90;;;;;;5138625;27;20135;-77
2024/01/15 05:09:17;;;;;;;6.72;2.00;;;0.60;99.90;;;;;;5137605;27;20026;-77
2024/01/15 05:11:43;;;;;;;8.48;2.03;;;0.60;99.90;;;;;;5138288;27;20033;-78
2024/01/15 05:14:09;;;;;;;8.27;1.58;;;0.50;99.90;;;;;;5137887;27;20492;-77
2024/01/15 05:16:37;;;;;;;4.88;1.80;;;0.50;99.90;;;;;;5137633;27;20031;-77
2024/01/15 05:19:03;;;;;;;8.95;2.05;;;0.50;99.90;;;;;;5137444;27;20042;-77
2024/01/15 05:21:29;;;;;;;10.48;1.75;;;0.50;99.90;;;;;;5118794;27;20026;-78
2024/01/15 05:23:55;;;;;;;5.50;1.80;;;0.50;99.90;;;;;;5136362;27;20351;-77
2024/01/15 05:26:21;;;;;;;7.68;1.58;;;0.40;99.90;;;;;;5117100;27;20495;-77
2024/01/15 05:28:46;;;;;;;12.13;2.35;;;0.40;99.90;;;;;;5136024;27;20051;-77
2024/01/15 05:31:12;;;;;;;7.95;2.00;;;0.50;99.90;;;;;;5117013;27;20019;-78
2024/01/15 05:33:38;;;;;;;11.07;1.83;;;0.40;99.90;;;;;;5136256;27;20039;-77
2024/01/15 05:36:04;;;;;;;9.90;2.13;;;0.40;99.90;;;;;;5117391;27;20150;-78
2024/01/15 05:38:29;;;;;;;8.43;1.95;;;0.30;99.90;;;;;;5136251;27;20027;-78
2024/01/15 05:40:55;;;;;;;5.78;1.45;;;0.30;99.90;;;;;;5136604;27;20496;-78
2024/01/15 05:43:21;;;;;;;11.10;1.92;;;0.30;99.90;;;;;;5135967;27;20079;-77
2024/01/15 05:45:47;;;;;;;7.43;2.10;;;0.30;99.90;;;;;;5136543;27;20078;-78
2024/01/15 05:48:13;;;;;;;4.35;1.63;;;0.30;99.90;;;;;;5136057;27;20023;-77
2024/01/15 05:50:39;;;;;;;8.80;2.80;;;0.30;99.90;;;;;;5136418;27;20030;-78
2024/01/15 05:53:05;;;;;;;7.20;2.40;;;0.30;99.90;;;;;;5135388;27;20026;-78
2024/01/15 05:55:30;;;;;;;5.03;1.65;;;0.30;99.90;;;;;;5136459;27;20402;-77
2024/01/15 05:57:56;;;;;;;5.93;1.60;;;0.30;99.90;;;;;;5117470;27;20054;-78
2024/01/15 06:00:22;;;;;;;8.02;1.63;;;0.30;99.90;;;;;;5134435;27;20574;-78
2024/01/15 06:02:48;;;;;;;12.32;2.47;;;0.40;99.90;;;;;;5135848;27;20404;-78
2024/01/15 06:05:13;;;;;;;5.00;2.00;;;0.30;99.90;;;;;;5135349;27;20432;-78
2024/01/15 06:07:39;;;;;;;7.80;2.28;;;0.30;99.90;;;;;;5117405;27;20015;-78
2024/01/15 06:10:05;;;;;;;8.43;2.00;;;0.30;99.90;;;;;;5135885;27;20071;-78
2024/01/15 06:12:33;;;;;;;9.77;2.30;;;0.30;99.90;;;;;;5117645;27;20020;-78
2024/01/15 06:14:59;;;;;;;14.18;2.15;;;0.20;99.90;;;;;;5137042;27;20027;-78
2024/01/15 06:17:24;;;;;;;8.95;1.83;;;0.20;99.90;;;;;;5137087;27;20019;-78
2024/01/15 06:19:50;;;;;;;8.80;2.20;;;0.20;99.90;;;;;;5137171;27;20018;-78
2024/01/15 06:22:16;;;;;;;8.95;2.08;;;0.20;99.90;;;;;;5137088;27;20332;-78
2024/01/15 06:24:42;;;;;;;5.22;1.75;;;0.20;99.90;;;;;;5137231;27;20023;-79
2024/01/15 06:27:08;;;;;;;8.05;2.20;;;0.20;99.90;;;;;;5135556;27;20027;-78
2024/01/15 06:29:37;;;;;;;5.88;2.10;;;0.20;99.90;;;;;;5136635;27;20031;-78
2024/01/15 06:32:03;;;;;;;7.60;2.22;;;0.20;99.90;;;;;;5136761;27;20015;-76
2024/01/15 06:34:28;;;;;;;8.80;2.13;;;0.10;99.90;;;;;;5117693;27;20070;-76
2024/01/15 06:36:54;;;;;;;10.15;2.30;;;0.10;99.90;;;;;;5117692;27;20038;-76
2024/01/15 06:39:20;;;;;;;7.72;2.40;;;0.00;99.90;;;;;;5137521;27;20021;-77
2024/01/15 06:41:46;;;;;;;5.95;1.95;;;0.10;99.90;;;;;;5136477;27;20019;-76
2024/01/15 06:44:12;;;;;;;5.50;2.33;;;0.10;99.90;;;;;;5117338;27;20023;-77
2024/01/15 06:46:45;;;;;;;8.05;2.20;;;0.10;99.90;;;;;;5135754;27;20464;-76
2024/01/15 06:49:11;;;;;;;;;;;0.10;99.90;;;;;;5116634;27;20023;-76
2024/01/15 06:51:37;;;;;;;8.63;2.22;;;0.10;99.90;;;;;;5117672;27;20189;-76
2024/01/15 06:54:02;;;;;;;5.03;1.80;;;0.10;99.90;;;;;;5136436;27;20043;-76
2024/01/15 06:56:28;;;;;;;6.95;1.95;;;0.10;99.90;;;;;;5136317;27;20480;-77
2024/01/15 06:58:54;;;;;;;4.72;1.80;;;0.10;99.90;;;;;;5135737;27;20042;-77
2024/01/15 07:01:19;;;;;;;10.70;2.05;;;0.10;99.90;;;;;;5136343;27;20045;-76
2024/01/15 07:03:45;;;;;;;9.32;2.38;;;0.10;99.90;;;;;;5136112;27;20053;-76
2024/01/15 07:06:12;;;;;;;9.00;2.58;;;0.00;99.90;;;;;;5136463;27;20015;-77
2024/01/15 07:08:39;;;;;;;5.25;2.40;;;0.00;99.90;;;;;;5136604;27;20102;-76
2024/01/15 07:11:05;;;;;;;7.05;2.08;;;0.00;99.90;;;;;;5135992;27;20027;-77
2024/01/15 07:13:31;;;;;;;8.38;2.30;;;0.00;99.90;;;;;;5135830;27;20042;-77
2024/01/15 07:15:57;;;;;;;10.18;2.30;;;0.00;99.90;;;;;;5135877;27;20031;-77
2024/01/15 07:18:23;;;;;;;9.57;2.88;;;-0.10;99.90;;;;;;5136189;27;20544;-77
2024/01/15 07:20:49;;;;;;;8.70;2.85;;;0.00;99.90;;;;;;5135246;27;20055;-77
2024/01/15 07:23:15;;;;;;;11.75;3.05;;;-0.10;99.90;;;;;;5134225;27;20015;-77
2024/01/15 07:25:40;;;;;;;5.63;2.55;;;0.00;99.90;;;;;;5116180;27;20023;-77
2024/01/15 07:28:06;;;;;;;7.85;2.95;;;-0.10;99.90;;;;;;5134853;27;20022;-77
2024/01/15 07:30:32;;;;;;;9.90;2.75;;;-0.20;99.90;;;;;;5133911;27;20027;-77
2024/01/15 07:32:58;;;;;;;7.70;2.65;;;-0.20;99.90;;;;;;5134325;27;20503;-77
2024/01/15 07:35:23;;;;;;;14.68;3.17;;;-0.20;99.90;;;;;;5134687;27;20027;-76
2024/01/15 07:37:49;;;;;;;8.63;2.90;;;-0.20;99.90;;;;;;5134701;27;20015;-77
2024/01/15 07:40:15;;;;;;;11.57;2.85;;;-0.20;99.90;;;;;;5135051;27;20072;-76
2024/01/15 07:42:42;;;;;;;10.13;2.20;;;-0.20;99.90;;;;;;5134930;27;20027;-77
2024/01/15 07:45:09;;;;;;;7.53;2.58;;;-0.20;99.90;;;;;;5135259;27;20027;-77
2024/01/15 07:47:35;;;;;;;8.73;2.63;;;-0.20;99.90;;;;;;5134454;27;20067;-77
2024/01/15 07:50:01;;;;;;;10.95;3.55;;;-0.20;99.90;;;;;;5115758;27;20432;-78
2024/01/15 07:52:26;;;;;;;20.45;5.38;;;-0.20;99.90;;;;;;5133098;27;20402;-77
2024/01/15 07:54:55;;;;;;;8.88;2.70;;;-0.20;99.90;;;;;;5133474;27;20027;-77
2024/01/15 07:57:21;;;;;;;11.25;2.95;;;-0.20;99.90;;;;;;5134132;27;20042;-77
2024/01/15 07:59:47;;;;;;;10.60;2.38;;;-0.20;99.90;;;;;;5116576;27;20019;-78
2024/01/15 08:02:12;;;;;;;10.27;2.38;;;-0.20;99.90;;;;;;5134089;27;20450;-77
2024/01/15 08:04:38;;;;;;;7.22;2.10;;;-0.20;99.90;;;;;;5134805;27;20098;-77
2024/01/15 08:07:05;;;;;;;9.05;2.88;;;-0.20;99.90;;;;;;5123183;27;20027;-78
2024/01/15 08:09:31;;;;;;;9.88;2.63;;;-0.20;99.90;;;;;;5130999;27;20535;-77
2024/01/15 08:11:57;;;;;;;8.68;2.22;;;-0.20;99.90;;;;;;5123010;27;20050;-79
2024/01/15 08:14:23;;;;;;;7.25;2.50;;;-0.10;99.90;;;;;;5129644;27;20035;-78
2024/01/15 08:16:48;;;;;;;11.45;4.18;;;-0.10;99.90;;;;;;5134097;27;20057;-78
2024/01/15 08:19:14;;;;;;;13.25;3.38;;;-0.10;99.90;;;;;;5134086;27;20019;-78
2024/01/15 08:21:40;;;;;;;4.80;2.17;;;0.00;99.90;;;;;;5134502;28;20316;-77
2024/01/15 08:24:06;;;;;;;10.65;2.50;;;-0.10;99.90;;;;;;5121086;27;20355;-77
2024/01/15 08:26:32;;;;;;;9.45;2.22;;;-0.10;99.90;;;;;;5141329;27;20037;-77
2024/01/15 08:28:58;;;;;;;5.03;2.40;;;-0.10;99.90;;;;;;5141248;27;20022;-78
2024/01/15 08:31:24;;;;;;;7.57;2.17;;;-0.10;99.90;;;;;;5140190;27;20029;-78
2024/01/15 08:33:50;;;;;;;5.13;2.13;;;-0.10;99.90;;;;;;5141017;27;20023;-78
2024/01/15 08:36:15;;;;;;;5.10;1.88;;;0.00;99.90;;;;;;5140740;27;20042;-77
2024/01/15 08:38:41;;;;;;;4.95;1.90;;;-0.10;99.90;;;;;;5141359;27;20023;-78
2024/01/15 08:41:08;;;;;;;13.45;2.35;;;-0.10;99.90;;;;;;5141695;27;20015;-78
2024/01/15 08:43:34;;;;;;;10.25;2.40;;;-0.10;99.90;;;;;;5141545;27;20019;-76
2024/01/15 08:46:00;;;;;;;7.07;2.15;;;-0.20;99.90;;;;;;5142806;27;20019;-77
2024/01/15 08:48:27;;;;;;;9.00;2.35;;;-0.10;99.90;;;;;;5142902;27;20019;-77
2024/01/15 08:50:54;;;;;;;9.32;2.38;;;-0.10;99.90;;;;;;5144518;27;20335;-78
2024/01/15 08:53:20;;;;;;;10.23;2.63;;;-0.20;99.90;;;;;;5143732;27;20103;-79
2024/01/15 08:55:46;;;;;;;9.52;2.72;;;-0.10;99.90;;;;;;5144470;27;20028;-77
2024/01/15 08:58:12;;;;;;;9.73;2.67;;;-0.20;99.90;;;;;;5143591;27;20093;-76
2024/01/15 09:00:37;;;;;;;8.25;2.88;;;-0.20;99.90;;;;;;5144367;27;20134;-78
2024/01/15 09:03:04;;;;;;;7.25;2.83;;;-0.10;99.90;;;;;;5136865;27;20045;-77
2024/01/15 09:05:30;;;;;;;8.63;3.58;;;-0.10;99.90;;;;;;5134591;27;20020;-77
2024/01/15 09:07:56;;;;;;;8.95;3.28;;;0.00;99.90;;;;;;5132881;27;20090;-78
2024/01/15 09:10:22;;;;;;;9.50;3.72;;;0.10;99.90;;;;;;5130649;27;20022;-77
2024/01/15 09:12:49;;;;;;;9.32;3.25;;;0.10;99.90;;;;;;5131511;27;20094;-77
2024/01/15 09:15:15;;;;;;;5.70;2.67;;;0.10;99.90;;;;;;5125041;27;20031;-78
2024/01/15 09:17:40;;;;;;;10.85;4.28;;;0.10;99.90;;;;;;5130202;27;20509;-78
2024/01/15 09:20:07;;;;;;;9.70;4.00;;;0.20;99.90;;;;;;5137812;27;20064;-79
2024/01/15 09:22:33;;;;;;;8.98;3.80;;;0.20;99.90;;;;;;5124161;27;20049;-78
2024/01/15 09:24:59;;;;;;;7.97;3.85;;;0.30;99.90;;;;;;5112372;27;20024;-79
2024/01/15 09:27:28;;;;;;;9.80;3.90;;;0.30;99.90;;;;;;5130419;27;20016;-79
2024/01/15 09:29:54;;;;;;;10.98;4.15;;;0.30;99.90;;;;;;5130515;27;20545;-77
2024/01/15 09:32:20;;;;;;;12.60;4.03;;;0.40;99.90;;;;;;5122409;27;20125;-77
2024/01/15 09:34:49;;;;;;;10.65;3.65;;;0.50;99.90;;;;;;5120028;27;20086;-77
2024/01/15 09:37:15;;;;;;;7.85;3.38;;;0.50;99.90;;;;;;5137079;27;20019;-78
2024/01/15 09:39:41;;;;;;;9.05;3.67;;;0.60;99.90;;;;;;5136766;27;20094;-78
2024/01/15 09:42:07;;;;;;;7.38;3.30;;;0.60;99.90;;;;;;5138113;27;20532;-78
2024/01/15 09:44:33;;;;;;;6.97;3.13;;;0.60;99.90;;;;;;5118495;27;20025;-78
2024/01/15 09:47:00;;;;;;;12.18;4.38;;;0.70;99.90;;;;;;5137565;27;20044;-77
2024/01/15 09:49:25;;;;;;;8.55;3.40;;;0.70;99.90;;;;;;5137221;27;20505;-77
2024/01/15 09:51:52;;;;;;;9.57;4.05;;;0.70;99.90;;;;;;5137034;27;20057;-80
2024/01/15 09:54:17;;;;;;;10.77;3.80;;;0.70;99.90;;;;;;5136859;27;20031;-78
2024/01/15 09:56:47;;;;;;;9.60;3.95;;;0.80;99.90;;;;;;5137214;27;20080;-77
2024/01/15 09:59:18;;;;;;;11.60;3.88;;;0.70;99.90;;;;;;5137712;27;20047;-78
2024/01/15 10:01:50;;;;;;;8.30;3.13;;;0.70;99.90;;;;;;5138015;27;20071;-77
2024/01/15 10:04:15;;;;;;;8.55;3.33;;;0.70;99.90;;;;;;5136732;27;20011;-77
2024/01/15 10:06:50;;;;;;;10.65;3.35;;;0.80;99.90;;;;;;5137056;27;20479;-78
2024/01/15 10:09:17;;;;;;;11.52;3.60;;;0.80;99.90;;;;;;5128714;27;20110;-78
2024/01/15 10:11:44;;;;;;;6.72;2.50;;;0.80;99.90;;;;;;5123695;27;20444;-78
2024/01/15 10:14:12;;;;;;;8.90;3.13;;;0.80;99.90;;;;;;5133155;27;20024;-78
2024/01/15 10:16:39;;;;;;;8.43;3.00;;;0.80;99.90;;;;;;5135426;27;20076;-77
2024/01/15 10:19:05;;;;;;;7.45;3.22;;;0.90;99.90;;;;;;5129803;27;20440;-77
2024/01/15 10:21:35;;;;;;;5.95;2.90;;;0.90;99.90;;;;;;5105484;27;20016;-78
2024/01/15 10:24:02;;;;;;;17.58;5.07;;;0.90;99.90;;;;;;5119600;27;20023;-77
2024/01/15 10:26:29;;;;;;;8.00;3.47;;;0.90;99.90;;;;;;5114729;28;20177;-78
2024/01/15 10:28:55;;;;;;;10.45;4.10;;;1.00;99.90;;;;;;5115121;28;20445;-77
2024/01/15 10:31:21;;;;;;;8.77;3.85;;;0.90;99.90;;;;;;5114634;28;20107;-78
2024/01/15 10:33:50;;;;;;;13.15;3.65;;;0.90;99.90;;;;;;5115062;28;20043;-77
2024/01/15 10:36:17;;;;;;;8.13;3.70;;;0.90;99.90;;;;;;5134136;27;20051;-78
2024/01/15 10:38:46;;;;;;;10.02;3.67;;;0.90;99.90;;;;;;5125588;27;20019;-79
2024/01/15 10:41:12;;;;;;;11.80;3.70;;;1.00;99.90;;;;;;5151941;27;20019;-79
2024/01/15 10:43:41;;;;;;;8.20;2.70;;;1.00;99.90;;;;;;5149458;27;20057;-77
2024/01/15 10:46:07;;;;;;;12.45;2.90;;;1.10;99.90;;;;;;5155705;27;20031;-77
2024/01/15 10:48:35;;;;;;;9.45;2.60;;;1.10;99.90;;;;;;5155652;27;20046;-78
2024/01/15 10:51:10;;;;;;;9.80;2.70;;;1.10;99.90;;;;;;5156643;27;20046;-79
2024/01/15 10:53:41;;;;;;;8.57;2.60;;;1.20;99.90;;;;;;5155805;27;20075;-78
2024/01/15 10:56:09;;;;;;;11.25;2.63;;;1.10;99.90;;;;;;5137632;27;20131;-79
2024/01/15 10:58:37;;;;;;;7.28;2.50;;;1.20;99.90;;;;;;5154629;27;20050;-76
2024/01/15 11:01:04;;;;;;;8.35;2.58;;;1.20;99.90;;;;;;5151978;27;20105;-76
2024/01/15 11:03:30;;;;;;;8.70;2.75;;;1.20;99.90;;;;;;5131966;27;20401;-77
2024/01/15 11:05:56;;;;;;;19.13;2.92;;;1.20;99.90;;;;;;5123524;27;20027;-76
2024/01/15 11:08:24;;;;;;;9.35;2.72;;;1.30;99.90;;;;;;5132452;27;20371;-77
2024/01/15 11:10:54;;;;;;;6.80;2.42;;;1.30;99.90;;;;;;5135406;27;20079;-77
2024/01/15 11:13:40;;;;;;;7.38;2.75;;;1.30;99.90;;;;;;5135832;27;20030;-77
2024/01/15 11:16:11;;;;;;;7.80;2.65;;;1.30;99.90;;;;;;5135055;27;20405;-76
2024/01/15 11:18:56;;;;;;;10.00;2.80;;;1.30;99.90;;;;;;5134574;27;20105;-76
2024/01/15 11:21:23;;;;;;;11.93;3.05;;;1.30;99.90;;;;;;5134931;27;20023;-76
2024/01/15 11:23:57;;;;;;;9.68;3.58;;;1.40;99.90;;;;;;5134083;27;20019;-76
2024/01/15 11:26:46;;;;;;;9.80;3.63;;;1.40;99.90;;;;;;5135183;27;20061;-77
2024/01/15 11:29:27;;;;;;;10.20;3.47;;;1.40;99.90;;;;;;5134651;27;20046;-77
2024/01/15 11:31:56;;;;;;;10.00;3.33;;;1.50;99.90;;;;;;5134459;27;20023;-77
2024/01/15 11:34:52;;;;;;;6.18;3.40;;;1.50;99.90;;;;;;5134300;27;20047;-76
2024/01/15 11:37:18;;;;;;;7.10;2.83;;;1.50;99.90;;;;;;5134663;27;20023;-77
2024/01/15 11:39:45;;;;;;;13.98;3.15;;;1.60;99.90;;;;;;5133888;27;20027;-77
2024/01/15 11:42:12;;;;;;;10.52;2.75;;;1.60;99.90;;;;;;5135106;27;20095;-77
2024/01/15 11:44:39;;;;;;;10.60;2.60;;;1.70;99.90;;;;;;5134122;27;20088;-77
2024/01/15 11:47:13;;;;;;;5.85;2.30;;;1.80;99.90;;;;;;5133864;27;20034;-77
2024/01/15 11:50:08;;;;;;;7.60;2.63;;;1.80;99.90;;;;;;5115793;27;20416;-77
2024/01/15 11:52:35;;;;;;;8.30;2.42;;;1.80;99.90;;;;;;5133411;27;20337;-77
2024/01/15 11:55:11;;;;;;;8.57;2.90;;;1.90;99.90;;;;;;5133890;27;20136;-77
2024/01/15 11:57:46;;;;;;;8.45;2.67;;;1.90;99.90;;;;;;5132646;27;20070;-77
2024/01/15 12:00:13;;;;;;;9.13;2.47;;;1.90;99.90;;;;;;5133985;27;20122;-77
2024/01/15 12:02:44;;;;;;;8.15;2.15;;;2.00;99.90;;;;;;5134001;27;20027;-77
2024/01/15 12:05:20;;;;;;;6.05;1.98;;;2.00;99.90;;;;;;5133743;27;20325;-77
2024/01/15 12:07:50;;;;;;;5.80;1.80;;;2.10;99.90;;;;;;5133371;27;20019;-76
2024/01/15 12:10:20;;;;;;;6.60;1.90;;;2.10;99.90;;;;;;5133965;27;20081;-77
2024/01/15 12:12:52;;;;;;;7.10;2.30;;;2.10;99.90;;;;;;5133366;27;20023;-77
2024/01/15 12:15:18;;;;;;;6.95;2.53;;;2.20;99.90;;;;;;5133551;27;20432;-76
2024/01/15 12:17:45;;;;;;;9.25;2.10;;;2.20;99.90;;;;;;5133366;27;20050;-77
2024/01/15 12:20:12;;;;;;;7.32;2.47;;;2.30;99.90;;;;;;5133711;27;20020;-76
2024/01/15 12:22:38;;;;;;;7.95;2.38;;;2.30;99.90;;;;;;5133435;28;20061;-76
2024/01/15 12:25:04;;;;;;;8.27;2.38;;;2.40;99.90;;;;;;5133627;28;20042;-77
2024/01/15 12:27:30;;;;;;;6.55;2.25;;;2.40;99.90;;;;;;5133188;28;20025;-77
2024/01/15 12:29:56;;;;;;;11.35;3.03;;;2.40;99.90;;;;;;5133870;28;20023;-77
2024/01/15 12:32:23;;;;;;;11.57;2.60;;;2.40;99.90;;;;;;5134002;28;20098;-76
2024/01/15 12:34:50;;;;;;;7.00;2.63;;;2.40;99.90;;;;;;5134401;28;20507;-75
2024/01/15 12:37:19;;;;;;;7.43;3.10;;;2.40;99.90;;;;;;5136229;28;20084;-76
2024/01/15 12:39:45;;;;;;;13.32;3.33;;;2.50;99.90;;;;;;5134679;28;20479;-77
2024/01/15 12:42:10;;;;;;;7.85;2.08;;;2.50;99.90;;;;;;5099487;28;20023;-77
2024/01/15 12:44:37;;;;;;;8.82;3.53;;;2.50;99.90;;;;;;5133432;28;20034;-77
2024/01/15 12:47:05;;;;;;;9.98;2.30;;;2.50;99.90;;;;;;5133359;28;20019;-77
2024/01/15 12:49:31;;;;;;;7.65;2.58;;;2.50;99.90;;;;;;5132626;28;20091;-77